sensor_id;sensor_type;location;lat;lon;timestamp;pressure;altitude;pressure_sealevel;temperature;humidity
49835;BME280;35729;52.090;13.162;2023-02-14T00:01:40;103193.06;;;5.98;97.73
49835;BME280;35729;52.090;13.162;2023-02-14T00:04:11;103195.69;;;5.98;97.95
49835;BME280;35729;52.090;13.162;2023-02-14T00:06:40;103189.47;;;5.96;97.75
49835;BME280;35729;52.090;13.162;2023-02-14T00:09:11;103186.88;;;5.96;97.84
49835;BME280;35729;52.090;13.162;2023-02-14T00:11:40;103186.88;;;5.96;97.71
49835;BME280;35729;52.090;13.162;2023-02-14T00:14:09;103190.34;;;5.95;97.77
49835;BME280;35729;52.090;13.162;2023-02-14T00:16:51;103188.56;;;5.94;97.66
49835;BME280;35729;52.090;13.162;2023-02-14T00:19:22;103187.59;;;5.92;97.63
49835;BME280;35729;52.090;13.162;2023-02-14T00:21:51;103191.13;;;5.93;97.45
49835;BME280;35729;52.090;13.162;2023-02-14T00:24:22;103186.72;;;5.92;97.67
49835;BME280;35729;52.090;13.162;2023-02-14T00:26:51;103191.13;;;5.93;97.26
49835;BME280;35729;52.090;13.162;2023-02-14T00:29:21;103187.56;;;5.91;97.42
49835;BME280;35729;52.090;13.162;2023-02-14T00:31:50;103191.03;;;5.91;97.26
49835;BME280;35729;52.090;13.162;2023-02-14T00:34:22;103184.91;;;5.89;97.10
49835;BME280;35729;52.090;13.162;2023-02-14T00:36:50;103189.16;;;5.87;97.18
49835;BME280;35729;52.090;13.162;2023-02-14T00:39:19;103186.59;;;5.88;97.11
49835;BME280;35729;52.090;13.162;2023-02-14T00:41:47;103184.00;;;5.88;97.13
49835;BME280;35729;52.090;13.162;2023-02-14T00:44:22;103192.63;;;5.87;96.87
49835;BME280;35729;52.090;13.162;2023-02-14T00:46:51;103191.72;;;5.85;96.89
49835;BME280;35729;52.090;13.162;2023-02-14T00:49:22;103188.19;;;5.85;96.83
49835;BME280;35729;52.090;13.162;2023-02-14T00:51:50;103201.16;;;5.83;96.99
49835;BME280;35729;52.090;13.162;2023-02-14T00:54:19;103186.38;;;5.82;96.98
49835;BME280;35729;52.090;13.162;2023-02-14T00:56:47;103195.09;;;5.83;96.83
49835;BME280;35729;52.090;13.162;2023-02-14T00:59:16;103193.31;;;5.82;96.85
49835;BME280;35729;52.090;13.162;2023-02-14T01:01:44;103195.91;;;5.82;96.87
49835;BME280;35729;52.090;13.162;2023-02-14T01:04:12;103187.22;;;5.81;96.75
49835;BME280;35729;52.090;13.162;2023-02-14T01:06:43;103183.72;;;5.81;96.92
49835;BME280;35729;52.090;13.162;2023-02-14T01:09:12;103178.44;;;5.79;96.77
49835;BME280;35729;52.090;13.162;2023-02-14T01:11:40;103182.88;;;5.82;96.65
49835;BME280;35729;52.090;13.162;2023-02-14T01:14:09;103172.38;;;5.79;96.50
49835;BME280;35729;52.090;13.162;2023-02-14T01:16:38;103171.47;;;5.78;96.62
49835;BME280;35729;52.090;13.162;2023-02-14T01:19:06;103171.59;;;5.81;96.58
49835;BME280;35729;52.090;13.162;2023-02-14T01:21:36;103165.44;;;5.79;96.38
49835;BME280;35729;52.090;13.162;2023-02-14T01:24:08;103167.97;;;5.78;96.08
49835;BME280;35729;52.090;13.162;2023-02-14T01:26:36;103161.94;;;5.79;96.11
49835;BME280;35729;52.090;13.162;2023-02-14T01:29:05;103159.34;;;5.79;96.18
49835;BME280;35729;52.090;13.162;2023-02-14T01:31:34;103155.78;;;5.77;96.15
49835;BME280;35729;52.090;13.162;2023-02-14T01:34:03;103149.63;;;5.75;95.87
49835;BME280;35729;52.090;13.162;2023-02-14T01:36:34;103152.22;;;5.75;96.13
49835;BME280;35729;52.090;13.162;2023-02-14T01:39:09;103153.94;;;5.74;95.67
49835;BME280;35729;52.090;13.162;2023-02-14T01:41:39;103153.00;;;5.72;95.53
49835;BME280;35729;52.090;13.162;2023-02-14T01:47:08;103152.84;;;5.67;95.61
49835;BME280;35729;52.090;13.162;2023-02-14T01:49:41;103153.66;;;5.66;95.75
49835;BME280;35729;52.090;13.162;2023-02-14T01:52:14;103153.59;;;5.65;95.67
49835;BME280;35729;52.090;13.162;2023-02-14T01:54:50;103151.06;;;5.66;95.82
49835;BME280;35729;52.090;13.162;2023-02-14T01:57:20;103159.69;;;5.65;95.53
49835;BME280;35729;52.090;13.162;2023-02-14T01:59:54;103155.38;;;5.66;95.34
49835;BME280;35729;52.090;13.162;2023-02-14T02:02:43;103157.09;;;5.65;95.37
49835;BME280;35729;52.090;13.162;2023-02-14T02:05:12;103155.25;;;5.63;95.68
49835;BME280;35729;52.090;13.162;2023-02-14T02:07:48;103154.34;;;5.62;95.43
49835;BME280;35729;52.090;13.162;2023-02-14T02:10:20;103157.81;;;5.61;95.52
49835;BME280;35729;52.090;13.162;2023-02-14T02:12:49;103150.84;;;5.60;95.46
49835;BME280;35729;52.090;13.162;2023-02-14T02:15:21;103142.97;;;5.59;95.31
49835;BME280;35729;52.090;13.162;2023-02-14T02:17:57;103142.06;;;5.58;95.47
49835;BME280;35729;52.090;13.162;2023-02-14T02:23:58;103157.69;;;5.58;95.36
49835;BME280;35729;52.090;13.162;2023-02-14T02:33:32;103148.03;;;5.55;95.56
49835;BME280;35729;52.090;13.162;2023-02-14T02:39:21;103146.25;;;5.54;95.54
49835;BME280;35729;52.090;13.162;2023-02-14T02:42:03;103141.06;;;5.54;95.54
49835;BME280;35729;52.090;13.162;2023-02-14T02:44:41;103148.00;;;5.54;95.19
49835;BME280;35729;52.090;13.162;2023-02-14T02:47:17;103147.00;;;5.50;94.08
49835;BME280;35729;52.090;13.162;2023-02-14T02:49:53;103151.22;;;5.48;94.85
49835;BME280;35729;52.090;13.162;2023-02-14T02:52:39;103147.72;;;5.46;95.11
49835;BME280;35729;52.090;13.162;2023-02-14T02:55:36;103139.84;;;5.45;94.85
49835;BME280;35729;52.090;13.162;2023-02-14T02:58:19;103142.44;;;5.45;94.91
49835;BME280;35729;52.090;13.162;2023-02-14T03:00:51;103142.44;;;5.45;94.97
49835;BME280;35729;52.090;13.162;2023-02-14T03:03:22;103143.31;;;5.45;94.71
49835;BME280;35729;52.090;13.162;2023-02-14T03:06:04;103145.06;;;5.45;95.00
49835;BME280;35729;52.090;13.162;2023-02-14T03:08:33;103141.59;;;5.46;95.01
49835;BME280;35729;52.090;13.162;2023-02-14T03:11:04;103141.53;;;5.44;94.91
49835;BME280;35729;52.090;13.162;2023-02-14T03:13:42;103145.94;;;5.45;94.67
49835;BME280;35729;52.090;13.162;2023-02-14T03:16:22;103143.31;;;5.45;94.76
49835;BME280;35729;52.090;13.162;2023-02-14T03:19:01;103142.38;;;5.43;94.07
49835;BME280;35729;52.090;13.162;2023-02-14T03:21:41;103138.84;;;5.41;94.03
49835;BME280;35729;52.090;13.162;2023-02-14T03:24:12;103140.44;;;5.37;93.84
49835;BME280;35729;52.090;13.162;2023-02-14T03:26:52;103140.47;;;5.39;94.44
49835;BME280;35729;52.090;13.162;2023-02-14T03:29:28;103139.59;;;5.38;94.36
49835;BME280;35729;52.090;13.162;2023-02-14T03:32:02;103137.00;;;5.38;94.57
49835;BME280;35729;52.090;13.162;2023-02-14T03:34:42;103139.59;;;5.38;94.39
49835;BME280;35729;52.090;13.162;2023-02-14T03:37:14;103150.84;;;5.37;94.33
49835;BME280;35729;52.090;13.162;2023-02-14T03:39:51;103149.13;;;5.38;94.21
49835;BME280;35729;52.090;13.162;2023-02-14T03:42:28;103143.91;;;5.38;94.21
49835;BME280;35729;52.090;13.162;2023-02-14T03:45:00;103143.84;;;5.36;94.11
49835;BME280;35729;52.090;13.162;2023-02-14T03:47:31;103145.59;;;5.36;94.16
49835;BME280;35729;52.090;13.162;2023-02-14T03:50:04;103136.88;;;5.35;94.03
49835;BME280;35729;52.090;13.162;2023-02-14T03:52:35;103139.47;;;5.35;94.16
49835;BME280;35729;52.090;13.162;2023-02-14T03:55:07;103145.50;;;5.34;94.03
49835;BME280;35729;52.090;13.162;2023-02-14T03:57:45;103145.44;;;5.33;94.37
49835;BME280;35729;52.090;13.162;2023-02-14T04:00:17;103147.22;;;5.34;94.32
49835;BME280;35729;52.090;13.162;2023-02-14T04:02:48;103146.34;;;5.33;94.28
49835;BME280;35729;52.090;13.162;2023-02-14T04:05:23;103140.19;;;5.31;94.08
49835;BME280;35729;52.090;13.162;2023-02-14T04:07:55;103141.00;;;5.30;93.98
49835;BME280;35729;52.090;13.162;2023-02-14T04:10:24;103141.84;;;5.29;94.17
49835;BME280;35729;52.090;13.162;2023-02-14T04:12:55;103137.47;;;5.28;94.20
49835;BME280;35729;52.090;13.162;2023-02-14T04:15:24;103146.13;;;5.27;94.40
49835;BME280;35729;52.090;13.162;2023-02-14T04:17:52;103136.47;;;5.25;93.45
49835;BME280;35729;52.090;13.162;2023-02-14T04:20:33;103134.63;;;5.22;94.06
49835;BME280;35729;52.090;13.162;2023-02-14T04:23:02;103135.47;;;5.21;93.91
49835;BME280;35729;52.090;13.162;2023-02-14T04:25:31;103133.63;;;5.18;94.17
49835;BME280;35729;52.090;13.162;2023-02-14T04:28:02;103137.94;;;5.18;94.14
49835;BME280;35729;52.090;13.162;2023-02-14T04:30:31;103130.06;;;5.16;94.40
49835;BME280;35729;52.090;13.162;2023-02-14T04:32:59;103139.59;;;5.16;93.82
49835;BME280;35729;52.090;13.162;2023-02-14T04:35:28;103135.22;;;5.15;94.11
49835;BME280;35729;52.090;13.162;2023-02-14T04:37:56;103136.03;;;5.14;94.32
49835;BME280;35729;52.090;13.162;2023-02-14T04:40:25;103126.44;;;5.13;94.27
49835;BME280;35729;52.090;13.162;2023-02-14T04:42:53;103124.66;;;5.12;94.16
49835;BME280;35729;52.090;13.162;2023-02-14T04:45:24;103121.16;;;5.10;94.31
49835;BME280;35729;52.090;13.162;2023-02-14T04:47:53;103118.50;;;5.08;94.24
49835;BME280;35729;52.090;13.162;2023-02-14T04:50:22;103118.41;;;5.06;94.28
49835;BME280;35729;52.090;13.162;2023-02-14T04:52:50;103121.00;;;5.06;94.42
49835;BME280;35729;52.090;13.162;2023-02-14T04:55:19;103113.19;;;5.06;94.65
49835;BME280;35729;52.090;13.162;2023-02-14T04:57:47;103117.59;;;5.08;94.77
49835;BME280;35729;52.090;13.162;2023-02-14T05:00:17;103116.75;;;5.09;94.49
49835;BME280;35729;52.090;13.162;2023-02-14T05:02:48;103113.28;;;5.08;94.58
49835;BME280;35729;52.090;13.162;2023-02-14T05:05:17;103114.16;;;5.09;94.50
49835;BME280;35729;52.090;13.162;2023-02-14T05:07:45;103113.19;;;5.06;94.50
49835;BME280;35729;52.090;13.162;2023-02-14T05:10:14;103111.50;;;5.07;94.58
49835;BME280;35729;52.090;13.162;2023-02-14T05:12:43;103098.31;;;5.02;94.22
49835;BME280;35729;52.090;13.162;2023-02-14T05:15:12;103099.25;;;5.04;94.74
49835;BME280;35729;52.090;13.162;2023-02-14T05:17:40;103098.44;;;5.05;94.79
49835;BME280;35729;52.090;13.162;2023-02-14T05:20:11;103092.28;;;5.03;94.91
49835;BME280;35729;52.090;13.162;2023-02-14T05:22:40;103093.22;;;5.05;94.68
49835;BME280;35729;52.090;13.162;2023-02-14T05:25:08;103088.84;;;5.04;94.78
49835;BME280;35729;52.090;13.162;2023-02-14T05:27:37;103094.88;;;5.03;94.83
49835;BME280;35729;52.090;13.162;2023-02-14T05:30:07;103100.09;;;5.03;94.80
49835;BME280;35729;52.090;13.162;2023-02-14T05:32:35;103090.50;;;5.02;94.86
49835;BME280;35729;52.090;13.162;2023-02-14T05:35:05;103092.22;;;5.02;95.07
49835;BME280;35729;52.090;13.162;2023-02-14T05:37:36;103092.22;;;5.02;94.89
49835;BME280;35729;52.090;13.162;2023-02-14T05:40:06;103095.69;;;5.02;95.06
49835;BME280;35729;52.090;13.162;2023-02-14T05:42:37;103094.81;;;5.02;94.88
49835;BME280;35729;52.090;13.162;2023-02-14T05:45:07;103099.13;;;5.01;94.96
49835;BME280;35729;52.090;13.162;2023-02-14T05:47:35;103096.53;;;5.01;94.88
49835;BME280;35729;52.090;13.162;2023-02-14T05:50:06;103096.53;;;5.01;95.28
49835;BME280;35729;52.090;13.162;2023-02-14T05:52:37;103094.81;;;5.02;95.08
49835;BME280;35729;52.090;13.162;2023-02-14T05:55:06;103088.66;;;5.00;94.96
49835;BME280;35729;52.090;13.162;2023-02-14T05:57:35;103093.88;;;5.00;94.72
49835;BME280;35729;52.090;13.162;2023-02-14T06:00:05;103096.47;;;5.00;94.79
49835;BME280;35729;52.090;13.162;2023-02-14T06:02:34;103095.59;;;4.99;94.95
49835;BME280;35729;52.090;13.162;2023-02-14T06:05:02;103093.00;;;4.99;95.14
49835;BME280;35729;52.090;13.162;2023-02-14T06:07:31;103101.63;;;4.98;95.18
49835;BME280;35729;52.090;13.162;2023-02-14T06:10:02;103097.25;;;4.97;95.11
49835;BME280;35729;52.090;13.162;2023-02-14T06:12:34;103100.66;;;4.96;94.86
49835;BME280;35729;52.090;13.162;2023-02-14T06:15:03;103105.81;;;4.95;95.02
49835;BME280;35729;52.090;13.162;2023-02-14T06:17:31;103111.00;;;4.95;94.94
49835;BME280;35729;52.090;13.162;2023-02-14T06:20:00;103109.22;;;4.94;95.21
49835;BME280;35729;52.090;13.162;2023-02-14T06:22:37;103108.34;;;4.93;95.13
49835;BME280;35729;52.090;13.162;2023-02-14T06:25:30;103102.34;;;4.94;95.34
49835;BME280;35729;52.090;13.162;2023-02-14T06:27:59;103104.84;;;4.93;95.28
49835;BME280;35729;52.090;13.162;2023-02-14T06:30:28;103104.84;;;4.93;95.52
49835;BME280;35729;52.090;13.162;2023-02-14T06:32:56;103107.44;;;4.93;95.46
49835;BME280;35729;52.090;13.162;2023-02-14T06:35:24;103108.34;;;4.93;95.52
49835;BME280;35729;52.090;13.162;2023-02-14T06:37:53;103107.41;;;4.91;95.47
49835;BME280;35729;52.090;13.162;2023-02-14T06:40:21;103106.56;;;4.92;95.42
49835;BME280;35729;52.090;13.162;2023-02-14T06:43:00;103106.56;;;4.92;95.23
49835;BME280;35729;52.090;13.162;2023-02-14T06:45:28;103114.38;;;4.92;95.46
49835;BME280;35729;52.090;13.162;2023-02-14T06:47:57;103114.38;;;4.92;95.68
49835;BME280;35729;52.090;13.162;2023-02-14T06:50:25;103111.78;;;4.92;95.44
49835;BME280;35729;52.090;13.162;2023-02-14T06:52:54;103114.44;;;4.94;95.75
49835;BME280;35729;52.090;13.162;2023-02-14T06:55:22;103115.34;;;4.94;95.80
49835;BME280;35729;52.090;13.162;2023-02-14T06:57:51;103112.75;;;4.94;95.71
49835;BME280;35729;52.090;13.162;2023-02-14T07:00:22;103107.53;;;4.94;95.71
49835;BME280;35729;52.090;13.162;2023-02-14T07:02:51;103105.88;;;4.96;95.61
49835;BME280;35729;52.090;13.162;2023-02-14T07:05:19;103108.47;;;4.96;95.74
49835;BME280;35729;52.090;13.162;2023-02-14T07:07:48;103101.56;;;4.97;95.70
49835;BME280;35729;52.090;13.162;2023-02-14T07:10:17;103100.72;;;4.98;95.72
49835;BME280;35729;52.090;13.162;2023-02-14T07:12:45;103097.25;;;4.97;95.55
49835;BME280;35729;52.090;13.162;2023-02-14T07:15:14;103104.28;;;5.00;95.76
49835;BME280;35729;52.090;13.162;2023-02-14T07:17:45;103097.34;;;5.00;95.61
49835;BME280;35729;52.090;13.162;2023-02-14T07:20:13;103099.13;;;5.01;95.81
49835;BME280;35729;52.090;13.162;2023-02-14T07:22:42;103097.44;;;5.02;95.61
49835;BME280;35729;52.090;13.162;2023-02-14T07:25:11;103101.88;;;5.04;95.83
49835;BME280;35729;52.090;13.162;2023-02-14T07:27:40;103100.19;;;5.06;95.74
49835;BME280;35729;52.090;13.162;2023-02-14T07:30:10;103102.88;;;5.08;95.65
49835;BME280;35729;52.090;13.162;2023-02-14T07:32:39;103106.41;;;5.10;95.55
49835;BME280;35729;52.090;13.162;2023-02-14T07:35:10;103106.53;;;5.13;95.67
49835;BME280;35729;52.090;13.162;2023-02-14T07:37:39;103098.78;;;5.15;95.77
49835;BME280;35729;52.090;13.162;2023-02-14T07:40:08;103100.56;;;5.16;95.57
49835;BME280;35729;52.090;13.162;2023-02-14T07:42:37;103098.88;;;5.18;95.35
49835;BME280;35729;52.090;13.162;2023-02-14T07:45:12;103103.41;;;5.22;95.24
49835;BME280;35729;52.090;13.162;2023-02-14T07:47:41;103099.06;;;5.22;94.98
49835;BME280;35729;52.090;13.162;2023-02-14T07:50:12;103102.63;;;5.25;95.15
49835;BME280;35729;52.090;13.162;2023-02-14T07:52:40;103094.06;;;5.27;94.89
49835;BME280;35729;52.090;13.162;2023-02-14T07:55:09;103104.56;;;5.30;94.71
49835;BME280;35729;52.090;13.162;2023-02-14T07:57:38;103110.72;;;5.32;94.58
49835;BME280;35729;52.090;13.162;2023-02-14T08:00:08;103108.22;;;5.35;94.56
49835;BME280;35729;52.090;13.162;2023-02-14T08:02:36;103101.38;;;5.37;94.62
49835;BME280;35729;52.090;13.162;2023-02-14T08:05:05;103108.41;;;5.40;94.35
49835;BME280;35729;52.090;13.162;2023-02-14T08:07:36;103100.72;;;5.43;94.07
49835;BME280;35729;52.090;13.162;2023-02-14T08:10:06;103100.84;;;5.46;93.87
49835;BME280;35729;52.090;13.162;2023-02-14T08:12:35;103099.25;;;5.50;93.55
49835;BME280;35729;52.090;13.162;2023-02-14T08:15:16;103099.38;;;5.54;93.62
49835;BME280;35729;52.090;13.162;2023-02-14T08:17:56;103102.16;;;5.59;93.37
49835;BME280;35729;52.090;13.162;2023-02-14T08:20:25;103106.59;;;5.62;93.17
49835;BME280;35729;52.090;13.162;2023-02-14T08:22:56;103108.47;;;5.66;92.62
49835;BME280;35729;52.090;13.162;2023-02-14T08:25:24;103102.50;;;5.68;92.10
49835;BME280;35729;52.090;13.162;2023-02-14T08:27:53;103109.53;;;5.71;91.80
49835;BME280;35729;52.090;13.162;2023-02-14T08:30:22;103106.16;;;5.74;91.59
49835;BME280;35729;52.090;13.162;2023-02-14T08:32:52;103107.16;;;5.77;91.23
49835;BME280;35729;52.090;13.162;2023-02-14T08:35:20;103104.69;;;5.80;90.83
49835;BME280;35729;52.090;13.162;2023-02-14T08:37:49;103109.13;;;5.83;90.24
49835;BME280;35729;52.090;13.162;2023-02-14T08:40:20;103099.63;;;5.85;90.17
49835;BME280;35729;52.090;13.162;2023-02-14T08:42:49;103105.00;;;5.90;90.54
49835;BME280;35729;52.090;13.162;2023-02-14T08:45:17;103107.66;;;5.91;90.12
49835;BME280;35729;52.090;13.162;2023-02-14T08:47:46;103116.47;;;5.95;89.26
49835;BME280;35729;52.090;13.162;2023-02-14T08:50:16;103112.28;;;5.98;89.13
49835;BME280;35729;52.090;13.162;2023-02-14T08:52:45;103115.06;;;6.03;89.19
49835;BME280;35729;52.090;13.162;2023-02-14T08:55:13;103118.72;;;6.08;89.02
49835;BME280;35729;52.090;13.162;2023-02-14T08:57:44;103112.72;;;6.11;89.01
49835;BME280;35729;52.090;13.162;2023-02-14T09:00:14;103113.72;;;6.14;88.75
49835;BME280;35729;52.090;13.162;2023-02-14T09:02:43;103112.94;;;6.17;88.26
49835;BME280;35729;52.090;13.162;2023-02-14T09:05:11;103115.63;;;6.20;88.74
49835;BME280;35729;52.090;13.162;2023-02-14T09:07:40;103114.00;;;6.22;88.23
49835;BME280;35729;52.090;13.162;2023-02-14T09:10:09;103116.69;;;6.25;87.74
49835;BME280;35729;52.090;13.162;2023-02-14T09:12:38;103109.81;;;6.27;88.13
49835;BME280;35729;52.090;13.162;2023-02-14T09:15:10;103110.69;;;6.28;87.65
49835;BME280;35729;52.090;13.162;2023-02-14T09:17:39;103109.91;;;6.30;87.18
49835;BME280;35729;52.090;13.162;2023-02-14T09:20:10;103116.06;;;6.32;87.72
49835;BME280;35729;52.090;13.162;2023-02-14T09:22:40;103112.63;;;6.33;86.79
49835;BME280;35729;52.090;13.162;2023-02-14T09:25:09;103124.88;;;6.36;86.51
49835;BME280;35729;52.090;13.162;2023-02-14T09:27:38;103125.75;;;6.36;86.91
49835;BME280;35729;52.090;13.162;2023-02-14T09:30:11;103134.53;;;6.39;86.33
49835;BME280;35729;52.090;13.162;2023-02-14T09:32:39;103133.72;;;6.40;86.44
49835;BME280;35729;52.090;13.162;2023-02-14T09:35:08;103135.53;;;6.42;86.28
49835;BME280;35729;52.090;13.162;2023-02-14T09:37:49;103128.63;;;6.44;86.56
49835;BME280;35729;52.090;13.162;2023-02-14T09:40:31;103134.75;;;6.45;86.48
49835;BME280;35729;52.090;13.162;2023-02-14T09:43:06;103137.56;;;6.51;86.31
49835;BME280;35729;52.090;13.162;2023-02-14T09:45:39;103135.81;;;6.51;85.77
49835;BME280;35729;52.090;13.162;2023-02-14T09:48:14;103133.34;;;6.55;86.30
49835;BME280;35729;52.090;13.162;2023-02-14T09:50:47;103136.00;;;6.56;86.21
49835;BME280;35729;52.090;13.162;2023-02-14T09:53:21;103126.44;;;6.57;85.87
49835;BME280;35729;52.090;13.162;2023-02-14T09:55:56;103132.59;;;6.59;85.65
49835;BME280;35729;52.090;13.162;2023-02-14T09:58:33;103130.03;;;6.60;85.81
49835;BME280;35729;52.090;13.162;2023-02-14T10:01:14;103130.03;;;6.60;85.84
49835;BME280;35729;52.090;13.162;2023-02-14T10:04:00;103132.69;;;6.62;85.26
49835;BME280;35729;52.090;13.162;2023-02-14T10:06:42;103137.03;;;6.61;85.40
49835;BME280;35729;52.090;13.162;2023-02-14T10:09:30;103132.69;;;6.62;85.52
49835;BME280;35729;52.090;13.162;2023-02-14T10:12:09;103124.03;;;6.63;84.36
49835;BME280;35729;52.090;13.162;2023-02-14T10:14:38;103130.97;;;6.62;84.96
49835;BME280;35729;52.090;13.162;2023-02-14T10:17:15;103128.38;;;6.62;83.93
49835;BME280;35729;52.090;13.162;2023-02-14T10:19:48;103125.81;;;6.64;84.71
49835;BME280;35729;52.090;13.162;2023-02-14T10:22:22;103127.59;;;6.65;84.83
49835;BME280;35729;52.090;13.162;2023-02-14T10:24:55;103127.63;;;6.66;85.04
49835;BME280;35729;52.090;13.162;2023-02-14T10:27:29;103122.47;;;6.68;85.23
49835;BME280;35729;52.090;13.162;2023-02-14T10:30:00;103114.66;;;6.69;84.49
49835;BME280;35729;52.090;13.162;2023-02-14T10:32:38;103118.22;;;6.72;84.45
49835;BME280;35729;52.090;13.162;2023-02-14T10:35:17;103117.41;;;6.73;84.46
49835;BME280;35729;52.090;13.162;2023-02-14T10:37:56;103111.28;;;6.72;83.64
49835;BME280;35729;52.090;13.162;2023-02-14T10:40:39;103114.78;;;6.73;83.21
49835;BME280;35729;52.090;13.162;2023-02-14T10:43:15;103115.66;;;6.73;84.49
49835;BME280;35729;52.090;13.162;2023-02-14T10:46:00;103120.91;;;6.75;84.55
49835;BME280;35729;52.090;13.162;2023-02-14T10:48:44;103115.78;;;6.76;83.96
49835;BME280;35729;52.090;13.162;2023-02-14T10:51:17;103113.22;;;6.78;84.32
49835;BME280;35729;52.090;13.162;2023-02-14T10:54:04;103110.59;;;6.78;83.76
49835;BME280;35729;52.090;13.162;2023-02-14T10:56:39;103120.22;;;6.79;84.17
49835;BME280;35729;52.090;13.162;2023-02-14T10:59:17;103114.16;;;6.80;84.03
49835;BME280;35729;52.090;13.162;2023-02-14T11:01:51;103119.38;;;6.80;83.93
49835;BME280;35729;52.090;13.162;2023-02-14T11:04:23;103115.97;;;6.82;83.95
49835;BME280;35729;52.090;13.162;2023-02-14T11:06:52;103112.50;;;6.83;83.51
49835;BME280;35729;52.090;13.162;2023-02-14T11:09:22;103120.28;;;6.82;83.19
49835;BME280;35729;52.090;13.162;2023-02-14T11:11:52;103111.56;;;6.80;83.42
49835;BME280;35729;52.090;13.162;2023-02-14T11:14:24;103115.91;;;6.81;83.24
49835;BME280;35729;52.090;13.162;2023-02-14T11:16:54;103105.44;;;6.79;83.33
49835;BME280;35729;52.090;13.162;2023-02-14T11:19:29;103103.75;;;6.81;83.55
49835;BME280;35729;52.090;13.162;2023-02-14T11:22:00;103101.03;;;6.78;83.43
49835;BME280;35729;52.090;13.162;2023-02-14T11:24:32;103106.41;;;6.83;83.66
49835;BME280;35729;52.090;13.162;2023-02-14T11:27:02;103102.97;;;6.84;83.55
49835;BME280;35729;52.090;13.162;2023-02-14T11:29:34;103097.75;;;6.84;83.21
49835;BME280;35729;52.090;13.162;2023-02-14T11:32:08;103097.78;;;6.85;82.72
49835;BME280;35729;52.090;13.162;2023-02-14T11:34:40;103096.00;;;6.84;81.52
49835;BME280;35729;52.090;13.162;2023-02-14T11:37:23;103094.25;;;6.83;83.07
49835;BME280;35729;52.090;13.162;2023-02-14T11:39:54;103095.13;;;6.84;83.32
49835;BME280;35729;52.090;13.162;2023-02-14T11:42:38;103095.97;;;6.83;80.27
49835;BME280;35729;52.090;13.162;2023-02-14T11:45:26;103095.97;;;6.83;81.80
49835;BME280;35729;52.090;13.162;2023-02-14T11:48:14;103092.38;;;6.79;81.85
49835;BME280;35729;52.090;13.162;2023-02-14T11:50:54;103083.69;;;6.79;82.05
49835;BME280;35729;52.090;13.162;2023-02-14T11:53:26;103082.84;;;6.80;83.37
49835;BME280;35729;52.090;13.162;2023-02-14T11:55:57;103078.47;;;6.79;83.33
49835;BME280;35729;52.090;13.162;2023-02-14T11:58:32;103078.53;;;6.82;83.25
49835;BME280;35729;52.090;13.162;2023-02-14T12:01:02;103069.88;;;6.83;82.85
49835;BME280;35729;52.090;13.162;2023-02-14T12:03:43;103068.22;;;6.85;82.88
49835;BME280;35729;52.090;13.162;2023-02-14T12:06:22;103057.00;;;6.88;83.35
49835;BME280;35729;52.090;13.162;2023-02-14T12:08:51;103057.94;;;6.91;82.90
49835;BME280;35729;52.090;13.162;2023-02-14T12:11:37;103050.19;;;6.93;81.75
49835;BME280;35729;52.090;13.162;2023-02-14T12:14:20;103045.84;;;6.93;82.13
49835;BME280;35729;52.090;13.162;2023-02-14T12:16:56;103037.16;;;6.94;82.28
49835;BME280;35729;52.090;13.162;2023-02-14T12:19:32;103045.94;;;6.96;82.41
49835;BME280;35729;52.090;13.162;2023-02-14T12:22:07;103039.00;;;6.97;80.27
49835;BME280;35729;52.090;13.162;2023-02-14T12:24:44;103038.13;;;6.96;80.87
49835;BME280;35729;52.090;13.162;2023-02-14T12:27:20;103033.75;;;6.97;82.00
49835;BME280;35729;52.090;13.162;2023-02-14T12:29:52;103032.94;;;6.98;82.43
49835;BME280;35729;52.090;13.162;2023-02-14T12:32:23;103030.38;;;6.99;82.10
49835;BME280;35729;52.090;13.162;2023-02-14T12:34:56;103025.19;;;7.01;81.71
49835;BME280;35729;52.090;13.162;2023-02-14T12:37:39;103026.13;;;7.03;80.84
49835;BME280;35729;52.090;13.162;2023-02-14T12:40:20;103021.84;;;7.05;82.09
49835;BME280;35729;52.090;13.162;2023-02-14T12:43:02;103020.19;;;7.09;81.83
49835;BME280;35729;52.090;13.162;2023-02-14T12:45:51;103007.19;;;7.10;82.29
49835;BME280;35729;52.090;13.162;2023-02-14T12:48:29;103001.06;;;7.10;80.01
49835;BME280;35729;52.090;13.162;2023-02-14T12:51:03;103005.47;;;7.11;81.41
49835;BME280;35729;52.090;13.162;2023-02-14T12:53:46;103003.66;;;7.08;79.38
49835;BME280;35729;52.090;13.162;2023-02-14T12:56:28;103004.53;;;7.09;80.75
49835;BME280;35729;52.090;13.162;2023-02-14T12:59:14;103008.88;;;7.08;79.42
49835;BME280;35729;52.090;13.162;2023-02-14T13:01:58;103011.50;;;7.10;81.35
49835;BME280;35729;52.090;13.162;2023-02-14T13:04:47;103006.25;;;7.08;79.00
49835;BME280;35729;52.090;13.162;2023-02-14T13:07:36;103001.88;;;7.07;78.79
49835;BME280;35729;52.090;13.162;2023-02-14T13:10:16;103002.66;;;7.05;80.69
49835;BME280;35729;52.090;13.162;2023-02-14T13:12:52;103007.03;;;7.04;82.00
49835;BME280;35729;52.090;13.162;2023-02-14T13:15:30;102997.44;;;7.05;82.08
49835;BME280;35729;52.090;13.162;2023-02-14T13:18:07;102992.22;;;7.05;81.69
49835;BME280;35729;52.090;13.162;2023-02-14T13:20:44;102993.22;;;7.08;81.80
49835;BME280;35729;52.090;13.162;2023-02-14T13:23:20;102983.72;;;7.10;81.57
49835;BME280;35729;52.090;13.162;2023-02-14T13:25:57;102979.50;;;7.15;81.93
49835;BME280;35729;52.090;13.162;2023-02-14T13:28:27;102976.13;;;7.20;81.76
49835;BME280;35729;52.090;13.162;2023-02-14T13:30:58;102974.50;;;7.23;81.45
49835;BME280;35729;52.090;13.162;2023-02-14T13:33:30;102978.88;;;7.24;80.78
49835;BME280;35729;52.090;13.162;2023-02-14T13:36:02;102971.91;;;7.25;81.28